Ilirska Bistrica, Slovenia

12:18 PM CEST on April 28, 2015 (GMT +0200)
Knežak | | Change Station
CLOSE
Current Station
Personal Weather Stations
Location: Knežak, ILIRSKA BISTRICA
Elevation: 1929 ft
Nearby Weather Stations

Elev 1929 ft 45.62 °N, 14.25 °E | Updated 3 minutes ago

Overcast
Berawan
54.7 °F
Feels Like 54.7 °F
N
0.0
Angin Variable Angin from Arah Utara
Gusts 0.0 mph

Siang Ini
High -- | Low -- °F
--% Chance of Precip.
Yesterday
High -- | Low -- °F
Precip. -- Inch
5:56 AM 8:05 PM
Waxing Gibbous, 72% visible
Tekanan 29.65 Inch
Jarak Pandang 3.7 Mil
Awan Berawan 2000 ft
Titik Embun 31 °F
Kelembaban 40%
Rainfall 0.00 Inch
Snow Depth Not available.
UV 3 out of 12
Pollen Not available.
Air Quality Not available.
Flu Activity Not available.
METAR LDRI 281000Z VRB01KT 6000 OVC020 14/12 Q1004

More Conditions Fewer Conditions

Tekanan 29.65 Inch
Jarak Pandang 3.7 Mil
Awan Berawan 2000 ft
Titik Embun 31 °F
Kelembaban 40%
Rainfall 0.00 Inch
Snow Depth Not available.
UV 3 out of 12
Pollen Not available.
Air Quality Not available.
Flu Activity Not available.
METAR LDRI 281000Z VRB01KT 6000 OVC020 14/12 Q1004

More Conditions Fewer Conditions

10-Day Weather Forecast

Almanac

Astronomi

Apr. 28, 2015 Rise Set
Actual Time
Civil Twilight
Nautical Twilight
Astronomical Twilight
Moon
Length Of Visible Light
Lama Satu Hari
Tomorrow will be .
, % of the Moon is Illuminated

Today's Extremes

Country Highs Country Lows

Community

WunderPhotos

Upload Photos

1,817,600 photos uploaded!

WunderBlogs® & News

Nearby

Air Quality

  Air Quality AQ Index Pollutant
Not available.

Snow Depth

Station Depth Elevation

Earthquake Activity

City Distance Mag. Time & Date
Minimum magnitude displayed is 2.5.

Coastal Water Temperatures

Lokasi Temperatur

Stations

Nearby Weather Stations

Station Location Temp Angin Dingin Titik Embun Kelembaban Angin Precip. Elev Telah Diperbaharui Type